Terminal Aerodrome Forecast
Issued by NWS

Home | Current Version | Previous Version | Text Only | Print | Product List | Glossary On
Versions: 1 2 3 4 5 6 7 8 9 10 11 12 13 14 15
478
FTUS45 KRIW 260534
TAFLND
TAF
KLND 260534Z 2606/2706 02010G15KT P6SM VCSH SCT030 BKN050
     FM261500 09006KT P6SM SCT040
     FM261800 VRB05KT P6SM SKC
     FM270100 25006KT P6SM SKC=

USA.gov is the U.S. government's official web portal to all federal, state and local government web resources and services.